sensor_id;sensor_type;location;lat;lon;timestamp;P1;durP1;ratioP1;P2;durP2;ratioP2
78131;SDS011;67381;47.672;9.380;2023-04-21T00:00:58;4.00;;;2.88;;
78131;SDS011;67381;47.672;9.380;2023-04-21T00:03:26;5.32;;;3.05;;
78131;SDS011;67381;47.672;9.380;2023-04-21T00:05:54;6.43;;;3.05;;
78131;SDS011;67381;47.672;9.380;2023-04-21T00:08:22;4.30;;;2.80;;
78131;SDS011;67381;47.672;9.380;2023-04-21T00:10:49;4.63;;;2.63;;
78131;SDS011;67381;47.672;9.380;2023-04-21T00:13:16;3.80;;;2.72;;
78131;SDS011;67381;47.672;9.380;2023-04-21T00:15:43;5.18;;;2.20;;
78131;SDS011;67381;47.672;9.380;2023-04-21T00:18:10;4.35;;;2.45;;
78131;SDS011;67381;47.672;9.380;2023-04-21T00:20:39;4.97;;;3.65;;
78131;SDS011;67381;47.672;9.380;2023-04-21T00:23:07;6.28;;;3.75;;
78131;SDS011;67381;47.672;9.380;2023-04-21T00:25:36;3.55;;;2.17;;
78131;SDS011;67381;47.672;9.380;2023-04-21T00:28:04;7.10;;;3.55;;
78131;SDS011;67381;47.672;9.380;2023-04-21T00:30:31;5.28;;;3.60;;
78131;SDS011;67381;47.672;9.380;2023-04-21T00:32:58;5.20;;;3.70;;
78131;SDS011;67381;47.672;9.380;2023-04-21T00:35:25;6.07;;;3.70;;
78131;SDS011;67381;47.672;9.380;2023-04-21T00:37:52;7.13;;;4.22;;
78131;SDS011;67381;47.672;9.380;2023-04-21T00:40:20;5.88;;;4.20;;
78131;SDS011;67381;47.672;9.380;2023-04-21T00:42:47;6.90;;;4.53;;
78131;SDS011;67381;47.672;9.380;2023-04-21T00:45:14;5.85;;;4.82;;
78131;SDS011;67381;47.672;9.380;2023-04-21T00:47:41;6.55;;;4.68;;
78131;SDS011;67381;47.672;9.380;2023-04-21T00:50:09;6.78;;;4.82;;
78131;SDS011;67381;47.672;9.380;2023-04-21T00:52:40;7.53;;;4.93;;
78131;SDS011;67381;47.672;9.380;2023-04-21T00:55:09;7.10;;;5.15;;
78131;SDS011;67381;47.672;9.380;2023-04-21T00:57:37;6.30;;;4.05;;
78131;SDS011;67381;47.672;9.380;2023-04-21T01:00:05;7.03;;;4.78;;
78131;SDS011;67381;47.672;9.380;2023-04-21T01:02:35;7.07;;;5.30;;
78131;SDS011;67381;47.672;9.380;2023-04-21T01:05:04;7.35;;;4.88;;
78131;SDS011;67381;47.672;9.380;2023-04-21T01:07:34;7.80;;;5.78;;
78131;SDS011;67381;47.672;9.380;2023-04-21T01:10:02;7.65;;;5.07;;
78131;SDS011;67381;47.672;9.380;2023-04-21T01:12:30;6.53;;;5.22;;
78131;SDS011;67381;47.672;9.380;2023-04-21T01:14:57;6.82;;;5.00;;
78131;SDS011;67381;47.672;9.380;2023-04-21T01:17:24;10.13;;;6.10;;
78131;SDS011;67381;47.672;9.380;2023-04-21T01:19:56;9.65;;;6.32;;
78131;SDS011;67381;47.672;9.380;2023-04-21T01:22:23;7.10;;;5.43;;
78131;SDS011;67381;47.672;9.380;2023-04-21T01:24:51;9.18;;;4.35;;
78131;SDS011;67381;47.672;9.380;2023-04-21T01:27:18;7.82;;;5.30;;
78131;SDS011;67381;47.672;9.380;2023-04-21T01:29:47;8.50;;;5.97;;
78131;SDS011;67381;47.672;9.380;2023-04-21T01:32:20;7.93;;;5.28;;
78131;SDS011;67381;47.672;9.380;2023-04-21T01:34:49;9.25;;;5.45;;
78131;SDS011;67381;47.672;9.380;2023-04-21T01:37:18;9.00;;;5.63;;
78131;SDS011;67381;47.672;9.380;2023-04-21T01:39:51;9.15;;;6.25;;
78131;SDS011;67381;47.672;9.380;2023-04-21T01:42:21;8.55;;;5.75;;
78131;SDS011;67381;47.672;9.380;2023-04-21T01:44:49;10.70;;;6.82;;
78131;SDS011;67381;47.672;9.380;2023-04-21T01:47:17;8.07;;;4.93;;
78131;SDS011;67381;47.672;9.380;2023-04-21T01:49:44;8.32;;;5.30;;
78131;SDS011;67381;47.672;9.380;2023-04-21T01:52:11;8.95;;;5.15;;
78131;SDS011;67381;47.672;9.380;2023-04-21T01:54:38;7.93;;;5.40;;
78131;SDS011;67381;47.672;9.380;2023-04-21T01:57:06;9.43;;;5.65;;
78131;SDS011;67381;47.672;9.380;2023-04-21T01:59:33;8.05;;;5.50;;
78131;SDS011;67381;47.672;9.380;2023-04-21T02:02:01;7.97;;;6.05;;
78131;SDS011;67381;47.672;9.380;2023-04-21T02:04:28;10.20;;;6.15;;
78131;SDS011;67381;47.672;9.380;2023-04-21T02:06:56;8.32;;;5.78;;
78131;SDS011;67381;47.672;9.380;2023-04-21T02:09:23;8.73;;;5.72;;
78131;SDS011;67381;47.672;9.380;2023-04-21T02:11:50;8.23;;;5.63;;
78131;SDS011;67381;47.672;9.380;2023-04-21T02:14:18;9.18;;;6.15;;
78131;SDS011;67381;47.672;9.380;2023-04-21T02:16:45;10.57;;;5.53;;
78131;SDS011;67381;47.672;9.380;2023-04-21T02:19:12;8.75;;;6.20;;
78131;SDS011;67381;47.672;9.380;2023-04-21T02:21:39;8.90;;;5.45;;
78131;SDS011;67381;47.672;9.380;2023-04-21T02:24:07;10.30;;;6.40;;
78131;SDS011;67381;47.672;9.380;2023-04-21T02:26:34;8.13;;;4.82;;
78131;SDS011;67381;47.672;9.380;2023-04-21T02:29:01;9.27;;;6.28;;
78131;SDS011;67381;47.672;9.380;2023-04-21T02:31:29;9.40;;;6.07;;
78131;SDS011;67381;47.672;9.380;2023-04-21T02:33:56;9.15;;;6.03;;
78131;SDS011;67381;47.672;9.380;2023-04-21T02:36:24;8.93;;;6.30;;
78131;SDS011;67381;47.672;9.380;2023-04-21T02:38:52;9.32;;;6.15;;
78131;SDS011;67381;47.672;9.380;2023-04-21T02:41:19;9.30;;;6.22;;
78131;SDS011;67381;47.672;9.380;2023-04-21T02:43:46;12.23;;;6.78;;
78131;SDS011;67381;47.672;9.380;2023-04-21T02:46:14;10.68;;;6.95;;
78131;SDS011;67381;47.672;9.380;2023-04-21T02:48:41;8.52;;;6.50;;
78131;SDS011;67381;47.672;9.380;2023-04-21T02:51:14;10.32;;;6.78;;
78131;SDS011;67381;47.672;9.380;2023-04-21T02:53:41;8.57;;;5.82;;
78131;SDS011;67381;47.672;9.380;2023-04-21T02:56:08;9.70;;;7.18;;
78131;SDS011;67381;47.672;9.380;2023-04-21T02:58:36;10.55;;;7.15;;
78131;SDS011;67381;47.672;9.380;2023-04-21T03:01:03;11.48;;;6.13;;
78131;SDS011;67381;47.672;9.380;2023-04-21T03:03:31;10.60;;;7.10;;
78131;SDS011;67381;47.672;9.380;2023-04-21T03:06:03;10.35;;;6.65;;
78131;SDS011;67381;47.672;9.380;2023-04-21T03:08:31;10.40;;;6.90;;
78131;SDS011;67381;47.672;9.380;2023-04-21T03:10:59;11.50;;;7.05;;
78131;SDS011;67381;47.672;9.380;2023-04-21T03:13:27;9.63;;;7.13;;
78131;SDS011;67381;47.672;9.380;2023-04-21T03:15:54;10.60;;;6.22;;
78131;SDS011;67381;47.672;9.380;2023-04-21T03:18:22;11.80;;;7.38;;
78131;SDS011;67381;47.672;9.380;2023-04-21T03:20:49;11.82;;;7.53;;
78131;SDS011;67381;47.672;9.380;2023-04-21T03:23:16;9.88;;;6.63;;
78131;SDS011;67381;47.672;9.380;2023-04-21T03:25:43;10.40;;;7.32;;
78131;SDS011;67381;47.672;9.380;2023-04-21T03:28:11;11.02;;;7.43;;
78131;SDS011;67381;47.672;9.380;2023-04-21T03:30:38;10.25;;;6.43;;
78131;SDS011;67381;47.672;9.380;2023-04-21T03:33:05;10.05;;;6.22;;
78131;SDS011;67381;47.672;9.380;2023-04-21T03:35:33;8.63;;;6.25;;
78131;SDS011;67381;47.672;9.380;2023-04-21T03:38:00;9.65;;;6.18;;
78131;SDS011;67381;47.672;9.380;2023-04-21T03:40:29;9.55;;;5.97;;
78131;SDS011;67381;47.672;9.380;2023-04-21T03:42:56;9.23;;;5.90;;
78131;SDS011;67381;47.672;9.380;2023-04-21T03:45:23;12.20;;;6.53;;
78131;SDS011;67381;47.672;9.380;2023-04-21T03:47:53;10.13;;;6.28;;
78131;SDS011;67381;47.672;9.380;2023-04-21T03:50:21;11.20;;;6.85;;
78131;SDS011;67381;47.672;9.380;2023-04-21T03:52:49;9.07;;;6.28;;
78131;SDS011;67381;47.672;9.380;2023-04-21T03:55:16;10.25;;;7.00;;
78131;SDS011;67381;47.672;9.380;2023-04-21T03:57:43;9.73;;;6.70;;
78131;SDS011;67381;47.672;9.380;2023-04-21T04:00:11;11.10;;;7.00;;
78131;SDS011;67381;47.672;9.380;2023-04-21T04:02:39;10.80;;;6.70;;
78131;SDS011;67381;47.672;9.380;2023-04-21T04:05:07;10.38;;;6.10;;
78131;SDS011;67381;47.672;9.380;2023-04-21T04:07:34;11.70;;;7.68;;
78131;SDS011;67381;47.672;9.380;2023-04-21T04:10:02;10.35;;;6.53;;
78131;SDS011;67381;47.672;9.380;2023-04-21T04:12:30;11.20;;;7.30;;
78131;SDS011;67381;47.672;9.380;2023-04-21T04:14:57;11.32;;;7.40;;
78131;SDS011;67381;47.672;9.380;2023-04-21T04:17:24;12.88;;;6.75;;
78131;SDS011;67381;47.672;9.380;2023-04-21T04:19:52;8.10;;;5.43;;
78131;SDS011;67381;47.672;9.380;2023-04-21T04:22:19;10.65;;;6.93;;
78131;SDS011;67381;47.672;9.380;2023-04-21T04:24:46;11.20;;;7.78;;
78131;SDS011;67381;47.672;9.380;2023-04-21T04:27:14;11.73;;;7.95;;
78131;SDS011;67381;47.672;9.380;2023-04-21T04:29:42;11.73;;;8.30;;
78131;SDS011;67381;47.672;9.380;2023-04-21T04:32:09;10.57;;;7.22;;
78131;SDS011;67381;47.672;9.380;2023-04-21T04:34:37;11.88;;;7.57;;
78131;SDS011;67381;47.672;9.380;2023-04-21T04:37:04;9.98;;;6.88;;
78131;SDS011;67381;47.672;9.380;2023-04-21T04:39:32;10.48;;;6.78;;
78131;SDS011;67381;47.672;9.380;2023-04-21T04:41:59;10.80;;;7.40;;
78131;SDS011;67381;47.672;9.380;2023-04-21T04:44:27;11.65;;;6.90;;
78131;SDS011;67381;47.672;9.380;2023-04-21T04:46:54;10.23;;;6.00;;
78131;SDS011;67381;47.672;9.380;2023-04-21T04:49:22;11.02;;;6.72;;
78131;SDS011;67381;47.672;9.380;2023-04-21T04:51:50;10.48;;;7.25;;
78131;SDS011;67381;47.672;9.380;2023-04-21T04:54:17;11.82;;;7.70;;
78131;SDS011;67381;47.672;9.380;2023-04-21T04:56:44;10.18;;;7.10;;
78131;SDS011;67381;47.672;9.380;2023-04-21T04:59:11;10.52;;;7.32;;
78131;SDS011;67381;47.672;9.380;2023-04-21T05:01:39;12.57;;;8.20;;
78131;SDS011;67381;47.672;9.380;2023-04-21T05:04:07;10.63;;;8.10;;
78131;SDS011;67381;47.672;9.380;2023-04-21T05:06:35;10.93;;;7.20;;
78131;SDS011;67381;47.672;9.380;2023-04-21T05:09:02;9.07;;;6.93;;
78131;SDS011;67381;47.672;9.380;2023-04-21T05:11:30;10.60;;;6.68;;
78131;SDS011;67381;47.672;9.380;2023-04-21T05:13:58;10.50;;;6.18;;
78131;SDS011;67381;47.672;9.380;2023-04-21T05:16:25;8.77;;;5.55;;
78131;SDS011;67381;47.672;9.380;2023-04-21T05:18:52;9.25;;;6.03;;
78131;SDS011;67381;47.672;9.380;2023-04-21T05:21:25;9.05;;;6.20;;
78131;SDS011;67381;47.672;9.380;2023-04-21T05:23:54;9.35;;;6.22;;
78131;SDS011;67381;47.672;9.380;2023-04-21T05:26:22;9.65;;;6.63;;
78131;SDS011;67381;47.672;9.380;2023-04-21T05:28:50;10.93;;;7.22;;
78131;SDS011;67381;47.672;9.380;2023-04-21T05:31:17;10.27;;;6.15;;
78131;SDS011;67381;47.672;9.380;2023-04-21T05:33:45;9.23;;;6.22;;
78131;SDS011;67381;47.672;9.380;2023-04-21T05:36:12;9.82;;;6.35;;
78131;SDS011;67381;47.672;9.380;2023-04-21T05:38:39;8.15;;;5.40;;
78131;SDS011;67381;47.672;9.380;2023-04-21T05:41:06;8.27;;;5.70;;
78131;SDS011;67381;47.672;9.380;2023-04-21T05:43:34;9.52;;;5.82;;
78131;SDS011;67381;47.672;9.380;2023-04-21T05:46:01;9.32;;;5.70;;
78131;SDS011;67381;47.672;9.380;2023-04-21T05:48:29;8.90;;;5.85;;
78131;SDS011;67381;47.672;9.380;2023-04-21T05:50:56;8.20;;;5.80;;
78131;SDS011;67381;47.672;9.380;2023-04-21T05:53:23;8.48;;;5.78;;
78131;SDS011;67381;47.672;9.380;2023-04-21T05:55:50;7.38;;;4.53;;
78131;SDS011;67381;47.672;9.380;2023-04-21T05:58:18;8.80;;;5.30;;
78131;SDS011;67381;47.672;9.380;2023-04-21T06:00:45;7.78;;;5.68;;
78131;SDS011;67381;47.672;9.380;2023-04-21T06:03:14;9.27;;;5.22;;
78131;SDS011;67381;47.672;9.380;2023-04-21T06:05:41;7.40;;;4.15;;
78131;SDS011;67381;47.672;9.380;2023-04-21T06:08:09;5.93;;;4.25;;
78131;SDS011;67381;47.672;9.380;2023-04-21T06:10:36;6.00;;;4.35;;
78131;SDS011;67381;47.672;9.380;2023-04-21T06:13:03;6.93;;;4.57;;
78131;SDS011;67381;47.672;9.380;2023-04-21T06:15:30;6.80;;;4.03;;
78131;SDS011;67381;47.672;9.380;2023-04-21T06:17:57;6.70;;;4.90;;
78131;SDS011;67381;47.672;9.380;2023-04-21T06:20:25;7.95;;;5.13;;
78131;SDS011;67381;47.672;9.380;2023-04-21T06:22:52;6.53;;;4.30;;
78131;SDS011;67381;47.672;9.380;2023-04-21T06:25:20;5.78;;;3.45;;
78131;SDS011;67381;47.672;9.380;2023-04-21T06:27:47;6.10;;;4.50;;
78131;SDS011;67381;47.672;9.380;2023-04-21T06:30:14;8.05;;;4.47;;
78131;SDS011;67381;47.672;9.380;2023-04-21T06:32:42;6.68;;;4.95;;
78131;SDS011;67381;47.672;9.380;2023-04-21T06:35:14;6.18;;;4.28;;
78131;SDS011;67381;47.672;9.380;2023-04-21T06:37:41;7.50;;;4.65;;
78131;SDS011;67381;47.672;9.380;2023-04-21T06:40:08;6.05;;;3.67;;
78131;SDS011;67381;47.672;9.380;2023-04-21T06:42:38;9.02;;;4.25;;
78131;SDS011;67381;47.672;9.380;2023-04-21T06:45:05;7.20;;;4.82;;
78131;SDS011;67381;47.672;9.380;2023-04-21T06:47:33;6.05;;;3.95;;
78131;SDS011;67381;47.672;9.380;2023-04-21T06:50:00;5.78;;;3.83;;
78131;SDS011;67381;47.672;9.380;2023-04-21T06:52:27;6.43;;;3.90;;
78131;SDS011;67381;47.672;9.380;2023-04-21T06:54:54;7.25;;;4.68;;
78131;SDS011;67381;47.672;9.380;2023-04-21T06:57:21;5.57;;;3.90;;
78131;SDS011;67381;47.672;9.380;2023-04-21T06:59:49;6.50;;;4.22;;
78131;SDS011;67381;47.672;9.380;2023-04-21T07:02:16;4.97;;;3.25;;
78131;SDS011;67381;47.672;9.380;2023-04-21T07:04:43;6.70;;;3.72;;
78131;SDS011;67381;47.672;9.380;2023-04-21T07:07:10;6.35;;;3.47;;
78131;SDS011;67381;47.672;9.380;2023-04-21T07:09:40;4.97;;;3.33;;
78131;SDS011;67381;47.672;9.380;2023-04-21T07:12:07;5.70;;;4.07;;
78131;SDS011;67381;47.672;9.380;2023-04-21T07:14:34;4.43;;;2.67;;
78131;SDS011;67381;47.672;9.380;2023-04-21T07:17:01;4.30;;;3.20;;
78131;SDS011;67381;47.672;9.380;2023-04-21T07:19:29;5.75;;;3.90;;
78131;SDS011;67381;47.672;9.380;2023-04-21T07:21:56;5.55;;;3.22;;
78131;SDS011;67381;47.672;9.380;2023-04-21T07:24:24;5.72;;;3.08;;
78131;SDS011;67381;47.672;9.380;2023-04-21T07:26:51;4.47;;;3.15;;
78131;SDS011;67381;47.672;9.380;2023-04-21T07:29:18;3.80;;;2.45;;
78131;SDS011;67381;47.672;9.380;2023-04-21T07:31:46;4.63;;;2.65;;
78131;SDS011;67381;47.672;9.380;2023-04-21T07:34:14;4.22;;;2.42;;
78131;SDS011;67381;47.672;9.380;2023-04-21T07:36:41;4.72;;;2.50;;
78131;SDS011;67381;47.672;9.380;2023-04-21T07:39:09;3.30;;;2.03;;
78131;SDS011;67381;47.672;9.380;2023-04-21T07:41:36;4.10;;;2.65;;
78131;SDS011;67381;47.672;9.380;2023-04-21T07:44:03;4.85;;;2.30;;
78131;SDS011;67381;47.672;9.380;2023-04-21T07:46:30;4.03;;;2.33;;
78131;SDS011;67381;47.672;9.380;2023-04-21T07:48:58;3.97;;;2.25;;
78131;SDS011;67381;47.672;9.380;2023-04-21T07:51:26;4.05;;;3.05;;
78131;SDS011;67381;47.672;9.380;2023-04-21T07:53:54;4.68;;;2.55;;
78131;SDS011;67381;47.672;9.380;2023-04-21T07:56:21;3.80;;;2.83;;
78131;SDS011;67381;47.672;9.380;2023-04-21T07:58:48;4.00;;;2.33;;
78131;SDS011;67381;47.672;9.380;2023-04-21T08:01:16;3.80;;;2.42;;
78131;SDS011;67381;47.672;9.380;2023-04-21T08:03:43;4.93;;;2.00;;
78131;SDS011;67381;47.672;9.380;2023-04-21T08:06:11;4.25;;;3.17;;
78131;SDS011;67381;47.672;9.380;2023-04-21T08:08:38;3.28;;;2.30;;
78131;SDS011;67381;47.672;9.380;2023-04-21T08:11:05;4.07;;;2.60;;
78131;SDS011;67381;47.672;9.380;2023-04-21T08:13:32;3.83;;;2.60;;
78131;SDS011;67381;47.672;9.380;2023-04-21T08:15:59;3.60;;;2.30;;
78131;SDS011;67381;47.672;9.380;2023-04-21T08:18:27;3.60;;;2.63;;
78131;SDS011;67381;47.672;9.380;2023-04-21T08:20:54;3.70;;;2.47;;
78131;SDS011;67381;47.672;9.380;2023-04-21T08:23:23;3.40;;;1.85;;
78131;SDS011;67381;47.672;9.380;2023-04-21T08:25:50;5.72;;;2.50;;
78131;SDS011;67381;47.672;9.380;2023-04-21T08:28:18;4.10;;;2.70;;
78131;SDS011;67381;47.672;9.380;2023-04-21T08:30:45;3.95;;;2.63;;
78131;SDS011;67381;47.672;9.380;2023-04-21T08:33:12;3.65;;;2.42;;
78131;SDS011;67381;47.672;9.380;2023-04-21T08:35:39;4.35;;;2.80;;
78131;SDS011;67381;47.672;9.380;2023-04-21T08:38:14;4.45;;;3.08;;
78131;SDS011;67381;47.672;9.380;2023-04-21T08:40:41;5.80;;;3.10;;
78131;SDS011;67381;47.672;9.380;2023-04-21T08:43:08;4.30;;;2.22;;
78131;SDS011;67381;47.672;9.380;2023-04-21T08:45:35;4.25;;;3.00;;
78131;SDS011;67381;47.672;9.380;2023-04-21T08:48:03;4.28;;;2.85;;
78131;SDS011;67381;47.672;9.380;2023-04-21T08:50:31;3.72;;;2.88;;
78131;SDS011;67381;47.672;9.380;2023-04-21T08:52:58;4.75;;;2.90;;
78131;SDS011;67381;47.672;9.380;2023-04-21T08:55:28;4.07;;;2.25;;
78131;SDS011;67381;47.672;9.380;2023-04-21T08:57:56;4.15;;;2.30;;
78131;SDS011;67381;47.672;9.380;2023-04-21T09:00:23;5.00;;;2.92;;
78131;SDS011;67381;47.672;9.380;2023-04-21T09:02:54;4.38;;;2.88;;
78131;SDS011;67381;47.672;9.380;2023-04-21T09:05:27;5.90;;;3.10;;
78131;SDS011;67381;47.672;9.380;2023-04-21T09:08:06;5.82;;;4.35;;
78131;SDS011;67381;47.672;9.380;2023-04-21T09:11:09;7.18;;;4.95;;
78131;SDS011;67381;47.672;9.380;2023-04-21T09:13:29;5.75;;;4.32;;
78131;SDS011;67381;47.672;9.380;2023-04-21T09:16:04;5.05;;;3.90;;
78131;SDS011;67381;47.672;9.380;2023-04-21T09:18:35;6.05;;;3.95;;
78131;SDS011;67381;47.672;9.380;2023-04-21T09:21:04;6.60;;;4.75;;
78131;SDS011;67381;47.672;9.380;2023-04-21T09:23:43;6.68;;;4.55;;
78131;SDS011;67381;47.672;9.380;2023-04-21T09:26:12;6.63;;;4.60;;
78131;SDS011;67381;47.672;9.380;2023-04-21T09:28:42;5.05;;;4.10;;
78131;SDS011;67381;47.672;9.380;2023-04-21T09:31:16;5.40;;;3.90;;
78131;SDS011;67381;47.672;9.380;2023-04-21T09:33:49;5.53;;;4.05;;
78131;SDS011;67381;47.672;9.380;2023-04-21T09:36:25;5.80;;;4.00;;
78131;SDS011;67381;47.672;9.380;2023-04-21T09:41:43;5.97;;;4.50;;
78131;SDS011;67381;47.672;9.380;2023-04-21T09:44:10;6.45;;;4.30;;
78131;SDS011;67381;47.672;9.380;2023-04-21T09:46:38;6.53;;;4.40;;
78131;SDS011;67381;47.672;9.380;2023-04-21T09:49:09;6.00;;;4.65;;
78131;SDS011;67381;47.672;9.380;2023-04-21T09:51:38;6.80;;;4.38;;
78131;SDS011;67381;47.672;9.380;2023-04-21T09:54:22;7.53;;;4.57;;
78131;SDS011;67381;47.672;9.380;2023-04-21T09:57:00;6.63;;;4.68;;
78131;SDS011;67381;47.672;9.380;2023-04-21T09:59:31;6.93;;;4.88;;
78131;SDS011;67381;47.672;9.380;2023-04-21T10:02:04;6.32;;;4.40;;
78131;SDS011;67381;47.672;9.380;2023-04-21T10:04:33;8.13;;;5.28;;
78131;SDS011;67381;47.672;9.380;2023-04-21T10:07:02;6.35;;;4.65;;
78131;SDS011;67381;47.672;9.380;2023-04-21T10:09:34;5.93;;;4.07;;
78131;SDS011;67381;47.672;9.380;2023-04-21T10:12:05;6.90;;;5.10;;
78131;SDS011;67381;47.672;9.380;2023-04-21T10:14:35;7.43;;;5.05;;
78131;SDS011;67381;47.672;9.380;2023-04-21T10:17:02;7.00;;;4.80;;
78131;SDS011;67381;47.672;9.380;2023-04-21T10:19:32;7.53;;;4.93;;
78131;SDS011;67381;47.672;9.380;2023-04-21T10:22:05;6.95;;;4.72;;
78131;SDS011;67381;47.672;9.380;2023-04-21T10:24:38;6.65;;;5.25;;
78131;SDS011;67381;47.672;9.380;2023-04-21T10:27:09;6.93;;;4.20;;
78131;SDS011;67381;47.672;9.380;2023-04-21T10:32:09;6.80;;;4.40;;
78131;SDS011;67381;47.672;9.380;2023-04-21T10:34:37;5.82;;;4.28;;
78131;SDS011;67381;47.672;9.380;2023-04-21T10:39:32;6.45;;;4.28;;
78131;SDS011;67381;47.672;9.380;2023-04-21T10:45:07;6.38;;;4.30;;
78131;SDS011;67381;47.672;9.380;2023-04-21T10:47:42;7.22;;;4.35;;
78131;SDS011;67381;47.672;9.380;2023-04-21T10:50:16;7.05;;;4.22;;
78131;SDS011;67381;47.672;9.380;2023-04-21T10:52:52;6.53;;;4.03;;
78131;SDS011;67381;47.672;9.380;2023-04-21T10:55:20;6.40;;;4.60;;
78131;SDS011;67381;47.672;9.380;2023-04-21T10:57:48;6.63;;;4.68;;
78131;SDS011;67381;47.672;9.380;2023-04-21T11:00:16;6.10;;;4.88;;
78131;SDS011;67381;47.672;9.380;2023-04-21T11:05:26;6.68;;;4.30;;
78131;SDS011;67381;47.672;9.380;2023-04-21T11:08:04;7.15;;;4.45;;
78131;SDS011;67381;47.672;9.380;2023-04-21T11:13:30;5.25;;;3.25;;
78131;SDS011;67381;47.672;9.380;2023-04-21T11:18:41;6.63;;;4.53;;
78131;SDS011;67381;47.672;9.380;2023-04-21T11:21:13;5.38;;;3.40;;
78131;SDS011;67381;47.672;9.380;2023-04-21T11:23:55;7.25;;;3.45;;
78131;SDS011;67381;47.672;9.380;2023-04-21T11:26:33;7.32;;;4.65;;
78131;SDS011;67381;47.672;9.380;2023-04-21T11:29:04;5.93;;;4.13;;
78131;SDS011;67381;47.672;9.380;2023-04-21T11:31:32;5.45;;;3.50;;
78131;SDS011;67381;47.672;9.380;2023-04-21T11:34:00;5.78;;;3.60;;
78131;SDS011;67381;47.672;9.380;2023-04-21T11:36:34;4.38;;;3.13;;
78131;SDS011;67381;47.672;9.380;2023-04-21T11:41:37;6.18;;;4.15;;
78131;SDS011;67381;47.672;9.380;2023-04-21T11:44:09;5.05;;;3.60;;
78131;SDS011;67381;47.672;9.380;2023-04-21T11:46:37;6.55;;;4.65;;
78131;SDS011;67381;47.672;9.380;2023-04-21T11:49:11;5.65;;;3.47;;
78131;SDS011;67381;47.672;9.380;2023-04-21T11:51:39;5.93;;;4.65;;
78131;SDS011;67381;47.672;9.380;2023-04-21T11:54:08;5.47;;;4.07;;
78131;SDS011;67381;47.672;9.380;2023-04-21T11:56:38;6.10;;;4.10;;
78131;SDS011;67381;47.672;9.380;2023-04-21T11:59:07;6.50;;;3.95;;
78131;SDS011;67381;47.672;9.380;2023-04-21T12:01:45;5.40;;;3.75;;
78131;SDS011;67381;47.672;9.380;2023-04-21T12:04:13;4.72;;;3.55;;
78131;SDS011;67381;47.672;9.380;2023-04-21T12:06:43;6.45;;;5.00;;
78131;SDS011;67381;47.672;9.380;2023-04-21T12:09:18;5.32;;;3.40;;
78131;SDS011;67381;47.672;9.380;2023-04-21T12:11:47;4.93;;;3.70;;
78131;SDS011;67381;47.672;9.380;2023-04-21T12:14:19;7.03;;;3.67;;
78131;SDS011;67381;47.672;9.380;2023-04-21T12:16:48;8.77;;;4.70;;
78131;SDS011;67381;47.672;9.380;2023-04-21T12:19:24;5.35;;;3.47;;
78131;SDS011;67381;47.672;9.380;2023-04-21T12:22:01;8.73;;;5.25;;
78131;SDS011;67381;47.672;9.380;2023-04-21T12:24:28;15.65;;;8.82;;
78131;SDS011;67381;47.672;9.380;2023-04-21T12:26:55;18.60;;;10.13;;
78131;SDS011;67381;47.672;9.380;2023-04-21T12:29:22;8.05;;;5.18;;
78131;SDS011;67381;47.672;9.380;2023-04-21T12:31:50;14.25;;;7.75;;
78131;SDS011;67381;47.672;9.380;2023-04-21T12:34:17;5.18;;;3.17;;
78131;SDS011;67381;47.672;9.380;2023-04-21T12:36:44;5.20;;;3.50;;
78131;SDS011;67381;47.672;9.380;2023-04-21T12:39:11;9.88;;;6.40;;
78131;SDS011;67381;47.672;9.380;2023-04-21T12:41:39;7.50;;;4.35;;
78131;SDS011;67381;47.672;9.380;2023-04-21T12:44:07;7.07;;;4.28;;
78131;SDS011;67381;47.672;9.380;2023-04-21T12:46:34;4.82;;;3.35;;
78131;SDS011;67381;47.672;9.380;2023-04-21T12:49:01;5.47;;;3.78;;
78131;SDS011;67381;47.672;9.380;2023-04-21T12:51:29;5.40;;;3.80;;
78131;SDS011;67381;47.672;9.380;2023-04-21T12:53:58;4.35;;;3.20;;
78131;SDS011;67381;47.672;9.380;2023-04-21T12:56:25;7.45;;;4.55;;
78131;SDS011;67381;47.672;9.380;2023-04-21T12:58:52;19.60;;;8.90;;
78131;SDS011;67381;47.672;9.380;2023-04-21T13:01:20;22.65;;;11.35;;
78131;SDS011;67381;47.672;9.380;2023-04-21T13:03:47;7.15;;;3.80;;
78131;SDS011;67381;47.672;9.380;2023-04-21T13:06:15;5.95;;;3.58;;
78131;SDS011;67381;47.672;9.380;2023-04-21T13:08:43;5.85;;;3.10;;
78131;SDS011;67381;47.672;9.380;2023-04-21T13:11:10;4.32;;;3.03;;
78131;SDS011;67381;47.672;9.380;2023-04-21T13:13:37;4.72;;;3.28;;
78131;SDS011;67381;47.672;9.380;2023-04-21T13:16:05;4.57;;;2.78;;
78131;SDS011;67381;47.672;9.380;2023-04-21T13:18:32;4.32;;;3.13;;
78131;SDS011;67381;47.672;9.380;2023-04-21T13:21:03;4.55;;;3.28;;
78131;SDS011;67381;47.672;9.380;2023-04-21T13:23:30;4.07;;;2.72;;
78131;SDS011;67381;47.672;9.380;2023-04-21T13:25:58;5.00;;;3.03;;
78131;SDS011;67381;47.672;9.380;2023-04-21T13:28:25;4.43;;;3.10;;
78131;SDS011;67381;47.672;9.380;2023-04-21T13:30:52;7.10;;;2.67;;
78131;SDS011;67381;47.672;9.380;2023-04-21T13:33:20;7.45;;;2.90;;
78131;SDS011;67381;47.672;9.380;2023-04-21T13:35:48;4.30;;;2.85;;
78131;SDS011;67381;47.672;9.380;2023-04-21T13:38:15;5.18;;;3.03;;
78131;SDS011;67381;47.672;9.380;2023-04-21T13:40:43;4.40;;;2.67;;
78131;SDS011;67381;47.672;9.380;2023-04-21T13:43:11;4.95;;;2.95;;
78131;SDS011;67381;47.672;9.380;2023-04-21T13:45:38;4.55;;;2.70;;
78131;SDS011;67381;47.672;9.380;2023-04-21T13:48:06;4.28;;;2.70;;
78131;SDS011;67381;47.672;9.380;2023-04-21T13:50:33;3.80;;;2.65;;
78131;SDS011;67381;47.672;9.380;2023-04-21T13:53:00;4.30;;;2.05;;
78131;SDS011;67381;47.672;9.380;2023-04-21T13:55:28;3.53;;;2.40;;
78131;SDS011;67381;47.672;9.380;2023-04-21T13:57:55;4.03;;;2.10;;
78131;SDS011;67381;47.672;9.380;2023-04-21T14:00:22;3.50;;;2.35;;
78131;SDS011;67381;47.672;9.380;2023-04-21T14:02:49;3.20;;;1.58;;
78131;SDS011;67381;47.672;9.380;2023-04-21T14:05:17;4.03;;;1.30;;
78131;SDS011;67381;47.672;9.380;2023-04-21T14:07:44;3.25;;;1.55;;
78131;SDS011;67381;47.672;9.380;2023-04-21T14:10:12;2.70;;;1.30;;
78131;SDS011;67381;47.672;9.380;2023-04-21T14:12:39;2.45;;;1.35;;
78131;SDS011;67381;47.672;9.380;2023-04-21T14:15:06;2.55;;;1.08;;
78131;SDS011;67381;47.672;9.380;2023-04-21T14:17:34;2.88;;;1.35;;
78131;SDS011;67381;47.672;9.380;2023-04-21T14:20:01;1.83;;;1.20;;
78131;SDS011;67381;47.672;9.380;2023-04-21T14:22:29;1.75;;;0.90;;
78131;SDS011;67381;47.672;9.380;2023-04-21T14:24:57;2.10;;;1.10;;
78131;SDS011;67381;47.672;9.380;2023-04-21T14:27:24;2.40;;;1.13;;
78131;SDS011;67381;47.672;9.380;2023-04-21T14:29:51;2.40;;;1.10;;
78131;SDS011;67381;47.672;9.380;2023-04-21T14:32:19;2.28;;;1.13;;
78131;SDS011;67381;47.672;9.380;2023-04-21T14:34:46;1.98;;;1.17;;
78131;SDS011;67381;47.672;9.380;2023-04-21T14:37:13;2.08;;;1.00;;
78131;SDS011;67381;47.672;9.380;2023-04-21T14:39:41;2.13;;;1.10;;
78131;SDS011;67381;47.672;9.380;2023-04-21T14:42:08;2.08;;;0.90;;
78131;SDS011;67381;47.672;9.380;2023-04-21T14:44:35;1.30;;;0.80;;
78131;SDS011;67381;47.672;9.380;2023-04-21T14:47:06;2.45;;;1.00;;
78131;SDS011;67381;47.672;9.380;2023-04-21T14:49:35;1.42;;;0.80;;
78131;SDS011;67381;47.672;9.380;2023-04-21T14:52:03;2.05;;;1.05;;
78131;SDS011;67381;47.672;9.380;2023-04-21T14:54:31;2.47;;;0.90;;
78131;SDS011;67381;47.672;9.380;2023-04-21T14:56:58;2.50;;;0.75;;
78131;SDS011;67381;47.672;9.380;2023-04-21T14:59:36;1.52;;;1.00;;
78131;SDS011;67381;47.672;9.380;2023-04-21T15:02:04;1.75;;;0.93;;
78131;SDS011;67381;47.672;9.380;2023-04-21T15:04:31;2.50;;;1.20;;
78131;SDS011;67381;47.672;9.380;2023-04-21T15:06:58;1.95;;;1.13;;
78131;SDS011;67381;47.672;9.380;2023-04-21T15:09:27;2.35;;;1.23;;
78131;SDS011;67381;47.672;9.380;2023-04-21T15:11:54;5.93;;;1.67;;
78131;SDS011;67381;47.672;9.380;2023-04-21T15:14:22;2.35;;;1.13;;